»·PEaware :: N315KM KPOC-KCRQ

N315KM :: KPOC-KCRQ

FLIGHT INFORMATION

Flight Status: Arrived
Operator: Privately registered:
United States
More flights under this callsign
Pilot: Chris P. (43660)
Aircraft: CESSNA 172 SKYHAWK
(C172)
More flights by this aircraft type
Origin: KPOC Brackett
United States
Destination: KCRQ McClellan-Palomar
United States
More flights between these airports :: More routes between these airports
Route: PRADO V16 PDZ V186 ROBNN V458 OCN
File this flight plan on PilotEdge
Remarks: VTF ILS 24
Altitude:
(Current/Filed)
7,000ft
Speed:
(Current/Filed)
105kts
Departed: 11-Jun-23 03:05 PM
Arrived: 11-Jun-23 03:53 PM
Distance/Time
Traveled:
63nm/0:47
Distance/Time
To Go:
Arrived

Flight Plot

Page will automatically refresh every two minutes.


Map Options




Map Legend


Flown Route
Filed Route
Departure Airport
Arrival Airport
Navaid (VOR, NDB)
Fix

Horizontal Profiles

Position Reports

Time Latitude Longitude Heading Altitude Ground
Speed
11-Jun-23 14:44 34.089630 -117.775273 89 1004ft 0kts
11-Jun-23 14:45 34.089630 -117.775273 89 1004ft 0kts
11-Jun-23 14:46 34.089630 -117.775273 89 1004ft 0kts
11-Jun-23 14:47 34.089630 -117.775273 89 1004ft 0kts
11-Jun-23 14:48 34.089630 -117.775273 89 1004ft 0kts
11-Jun-23 14:49 34.089630 -117.775273 89 1004ft 0kts
11-Jun-23 14:50 34.089630 -117.775273 89 1004ft 0kts
11-Jun-23 14:51 34.089630 -117.775273 89 1004ft 0kts
11-Jun-23 14:52 34.089630 -117.775273 89 1004ft 0kts
11-Jun-23 14:53 34.089630 -117.775273 89 1004ft 0kts
11-Jun-23 14:54 34.089630 -117.775273 89 1004ft 0kts
11-Jun-23 14:55 34.089630 -117.775273 89 1004ft 0kts
11-Jun-23 14:56 34.089630 -117.775273 89 1004ft 0kts
11-Jun-23 14:57 34.089630 -117.775273 89 1004ft 0kts
11-Jun-23 14:58 34.089630 -117.775273 89 1004ft 0kts
11-Jun-23 14:59 34.089630 -117.775273 89 1004ft 0kts
11-Jun-23 15:00 34.089630 -117.775272 89 1004ft 0kts
11-Jun-23 15:01 34.090510 -117.774634 10 1005ft 0kts
11-Jun-23 15:02 34.090510 -117.774634 10 1005ft 0kts
11-Jun-23 15:03 34.090994 -117.775081 274 1004ft 11kts
11-Jun-23 15:04 34.091521 -117.794603 246 1546ft 66kts
11-Jun-23 15:05 34.071411 -117.790502 142 2132ft 95kts
11-Jun-23 15:06 34.047535 -117.784054 182 2894ft 91kts
11-Jun-23 15:07 34.022694 -117.783696 178 3653ft 84kts
11-Jun-23 15:08 33.998349 -117.783645 185 4320ft 93kts
11-Jun-23 15:09 33.971930 -117.783637 170 5017ft 97kts
11-Jun-23 15:10 33.960894 -117.755258 103 5637ft 102kts
11-Jun-23 15:11 33.951784 -117.723446 135 6209ft 101kts
11-Jun-23 15:12 33.944892 -117.690550 101 6806ft 101kts
11-Jun-23 15:13 33.939145 -117.655688 103 7129ft 120kts
11-Jun-23 15:14 33.932246 -117.614410 102 7123ft 127kts
11-Jun-23 15:15 33.925586 -117.573632 102 7126ft 123kts
11-Jun-23 15:16 33.917991 -117.533919 129 7117ft 119kts
11-Jun-23 15:17 33.889559 -117.519238 138 7121ft 118kts
11-Jun-23 15:18 33.865581 -117.491303 137 7122ft 120kts
11-Jun-23 15:19 33.840491 -117.464812 146 7113ft 119kts
11-Jun-23 15:20 33.813536 -117.441927 147 7102ft 117kts
11-Jun-23 15:21 33.786549 -117.419092 147 7107ft 119kts
11-Jun-23 15:22 33.759117 -117.396108 146 7105ft 120kts
11-Jun-23 15:24 33.731764 -117.373260 147 7101ft 119kts
11-Jun-23 15:25 33.704505 -117.350268 147 7104ft 120kts
11-Jun-23 15:26 33.677205 -117.327355 146 7099ft 119kts
11-Jun-23 15:27 33.649569 -117.304308 147 7097ft 119kts
11-Jun-23 15:28 33.622125 -117.281741 149 7093ft 118kts
11-Jun-23 15:29 33.595374 -117.259513 147 7090ft 116kts
11-Jun-23 15:30 33.568417 -117.237087 148 7099ft 119kts
11-Jun-23 15:31 33.540890 -117.214230 148 7093ft 120kts
11-Jun-23 15:32 33.513524 -117.191527 147 7096ft 119kts
11-Jun-23 15:33 33.485156 -117.170482 152 7089ft 119kts
11-Jun-23 15:34 33.454805 -117.147978 151 6361ft 128kts
11-Jun-23 15:35 33.425347 -117.125334 150 5578ft 123kts
11-Jun-23 15:36 33.396782 -117.103491 151 4760ft 121kts
11-Jun-23 15:37 33.368413 -117.081658 150 4064ft 118kts
11-Jun-23 15:38 33.342098 -117.063141 154 4054ft 108kts
11-Jun-23 15:39 33.314532 -117.045567 154 4041ft 113kts
11-Jun-23 15:40 33.286656 -117.027919 155 4044ft 112kts
11-Jun-23 15:41 33.258698 -117.010273 155 4047ft 113kts
11-Jun-23 15:42 33.230781 -116.992602 156 4049ft 113kts
11-Jun-23 15:43 33.203414 -116.991833 221 4048ft 108kts
11-Jun-23 15:44 33.179414 -117.016094 221 3893ft 115kts
11-Jun-23 15:45 33.166265 -117.050204 251 3695ft 115kts
11-Jun-23 15:46 33.159261 -117.088091 254 3480ft 116kts
11-Jun-23 15:46 33.154104 -117.119796 257 3296ft 120kts
11-Jun-23 15:48 33.147634 -117.160713 256 2486ft 94kts
11-Jun-23 15:49 33.142854 -117.189840 256 1909ft 86kts
11-Jun-23 15:50 33.138279 -117.218290 256 1342ft 84kts
11-Jun-23 15:51 33.133936 -117.245092 256 851ft 81kts
11-Jun-23 15:51 33.130966 -117.263255 255 526ft 61kts
11-Jun-23 15:52 33.128220 -117.279078 235 309ft 20kts

Navigation Log

Ident Type
Flight plan parsing failed, navigation log unavailable